Flight Track Log - Related Links

Times and Time Zones

All times are in EST time to prevent confusion due to time zone crossing. See the CSN3949 flight status page for this flight to view local times or setup timezone preferences in your user account.

Time Position Orientation Groundspeed Altitude Reporting Facility
EST Latitude Longitude Course Direction KTS MPH feet Rate Location/Type
Tue 10:01:00 PM 29.7771 106.5889 322° Northwest  Level Estimated
Tue 10:02:00 PM 29.8348 106.5367 322° Northwest  Level Estimated
Tue 10:03:00 PM 29.8924 106.4844 322° Northwest  Level Estimated
Tue 10:04:00 PM 29.9471 106.4348 322° Northwest  Level Estimated
Tue 10:05:00 PM 30.0017 106.3852 322° Northwest  Level Estimated
Tue 10:06:00 PM 30.0564 106.3354 322° Northwest  Level Estimated
Tue 10:07:00 PM 30.1110 106.2857 322° Northwest  Level Estimated
Tue 10:08:00 PM 30.1656 106.2358 322° Northwest  Level Estimated
Tue 10:09:00 PM 30.2201 106.1860 322° Northwest  Level Estimated
Tue 10:10:00 PM 30.2747 106.1360 322° Northwest  Level Estimated
Tue 10:11:00 PM 30.3292 106.0860 322° Northwest  Level Estimated
Tue 10:12:00 PM 30.3837 106.0360 322° Northwest  Level Estimated
Tue 10:13:00 PM 30.4382 105.9859 322° Northwest  Level Estimated
Tue 10:14:00 PM 30.4927 105.9357 322° Northwest  Level Estimated
Tue 10:15:00 PM 30.5471 105.8855 322° Northwest  Level Estimated
Tue 10:16:00 PM 30.6016 105.8352 322° Northwest  Level Estimated
Tue 10:17:00 PM 30.6560 105.7849 321° Northwest  Level Estimated
Tue 10:18:00 PM 30.7104 105.7345 321° Northwest  Level Estimated
Tue 10:19:00 PM 30.7648 105.6841 321° Northwest  Level Estimated
Tue 10:20:00 PM 30.8191 105.6336 321° Northwest  Level Estimated
Tue 10:21:00 PM 30.8735 105.5830 321° Northwest  Level Estimated
Tue 10:22:00 PM 30.9278 105.5324 321° Northwest  Level Estimated
Tue 10:23:00 PM 30.9821 105.4817 321° Northwest  Level Estimated
Tue 10:24:00 PM 31.0364 105.4310 321° Northwest  Level Estimated
Tue 10:25:00 PM 31.0906 105.3802 321° Northwest  Level Estimated
Tue 10:26:00 PM 31.1449 105.3294 321° Northwest  Level Estimated
Tue 10:27:00 PM 31.1991 105.2785 321° Northwest  Level Estimated
Tue 10:28:00 PM 31.2533 105.2275 321° Northwest  Level Estimated
Tue 10:29:00 PM 31.3075 105.1765 321° Northwest  Level Estimated
Tue 10:30:00 PM 31.3616 105.1254 321° Northwest  Level Estimated
Tue 10:31:00 PM 31.4158 105.0742 321° Northwest  Level Estimated
Tue 10:32:00 PM 31.4699 105.0230 321° Northwest  Level Estimated
Tue 10:33:00 PM 31.5240 104.9718 321° Northwest  Level Estimated
Tue 10:34:00 PM 31.5781 104.9205 321° Northwest  Level Estimated
Tue 10:35:00 PM 31.6321 104.8691 321° Northwest  Level Estimated
Tue 10:36:00 PM 31.6862 104.8176 321° Northwest  Level Estimated
Tue 10:37:00 PM 31.7402 104.7662 321° Northwest  Level Estimated
Tue 10:38:00 PM 31.7942 104.7146 321° Northwest  Level Estimated
Tue 10:39:00 PM 31.8481 104.6630 321° Northwest  Level Estimated
Tue 10:40:00 PM 31.9021 104.6113 321° Northwest  Level Estimated
Tue 10:41:00 PM 31.9560 104.5595 321° Northwest  Level Estimated
Tue 10:42:00 PM 32.0099 104.5078 321° Northwest  Level Estimated
Tue 10:43:00 PM 32.0638 104.4559 321° Northwest  Level Estimated
Tue 10:44:00 PM 32.1177 104.4040 321° Northwest  Level Estimated
Tue 10:45:00 PM 32.1715 104.3520 321° Northwest  Level Estimated
Tue 10:46:00 PM 32.2254 104.2999 321° Northwest  Level Estimated
Tue 10:47:00 PM 32.2792 104.2478 321° Northwest  Level Estimated
Tue 10:48:00 PM 32.3330 104.1957 321° Northwest  Level Estimated
Tue 10:49:00 PM 32.3867 104.1434 321° Northwest  Level Estimated
Tue 10:50:00 PM 32.4404 104.0912 321° Northwest  Level Estimated
Tue 10:51:00 PM 32.4942 104.0388 321° Northwest  Level Estimated
Tue 10:52:00 PM 32.5479 103.9864 321° Northwest  Level Estimated
Tue 10:53:00 PM 32.6016 103.9339 321° Northwest  Level Estimated
Tue 10:54:00 PM 32.6552 103.8814 321° Northwest  Level Estimated
Tue 10:55:00 PM 32.7088 103.8288 320° Northwest  Level Estimated
Tue 10:56:00 PM 32.7624 103.7761 320° Northwest  Level Estimated
Tue 10:57:00 PM 32.8160 103.7234 320° Northwest  Level Estimated
Tue 10:58:00 PM 32.8570 103.6830 320° Northwest  Level Estimated
Tue 10:59:00 PM 32.8570 103.6830 North  Level Estimated
Tue 11:00:00 PM 32.8570 103.6830 North  Level Estimated
Tue 11:01:00 PM 32.8570 103.6830 North  Level Estimated
Tue 11:02:00 PM 32.8570 103.6830 North  Level Estimated
Tue 11:03:00 PM 32.8570 103.6830 North  Level Estimated
Tue 11:04:00 PM 32.8570 103.6830 North  Level Estimated
Tue 11:05:00 PM 32.8570 103.6830 North  Level Estimated
Tue 11:06:00 PM 32.8570 103.6830 North  Level Estimated
Tue 11:07:00 PM 32.8570 103.6830 North  Level Estimated
Tue 11:08:00 PM 32.8570 103.6830 North  Level Estimated
Tue 11:09:00 PM 32.8570 103.6830 North  Level Estimated
Tue 11:10:00 PM 32.8570 103.6830 North  Level Estimated
Tue 11:11:00 PM 32.8570 103.6830 North  Level Estimated
Tue 11:12:00 PM 32.8570 103.6830 North  Level Estimated
Tue 11:13:00 PM 32.8570 103.6830 North  Level Estimated

Login

Don't have an account? Register now (free) for customized features, flight alerts, and more!